Time;durP1;ratioP1;P1;durP2;ratioP2;P2;SDS_P1;SDS_P2;PMS_P1;PMS_P2;Temp;Humidity;BMP_temperature;BMP_pressure;BME280_temperature;BME280_humidity;BME280_pressure;Samples;Min_cycle;Max_cycle;Signal;HPM_P1;HPM_P2
2024/02/16 00:00:13;;;;;;;9.27;3.85;;;12.60;99.90;;;;;;5052264;28;20048;-77
2024/02/16 00:02:40;;;;;;;7.45;3.70;;;12.60;99.90;;;;;;5053162;28;20029;-77
2024/02/16 00:05:07;;;;;;;6.45;3.40;;;12.60;99.90;;;;;;5052205;28;20025;-77
2024/02/16 00:07:33;;;;;;;9.75;3.70;;;12.60;99.90;;;;;;5052794;28;20028;-77
2024/02/16 00:09:59;;;;;;;7.95;3.20;;;12.60;99.90;;;;;;5050964;28;20473;-76
2024/02/16 00:12:25;;;;;;;10.05;3.60;;;12.60;99.90;;;;;;5052600;28;20041;-76
2024/02/16 00:14:51;;;;;;;7.85;3.45;;;12.50;99.90;;;;;;5051545;28;20440;-77
2024/02/16 00:17:16;;;;;;;8.40;3.10;;;12.50;99.90;;;;;;5050802;28;20650;-76
2024/02/16 00:19:42;;;;;;;8.82;3.15;;;12.50;99.90;;;;;;5051300;28;20512;-77
2024/02/16 00:22:08;;;;;;;7.53;3.63;;;12.40;99.90;;;;;;5051849;28;20032;-77
2024/02/16 00:24:34;;;;;;;7.40;3.25;;;12.40;99.90;;;;;;5051205;28;20021;-77
2024/02/16 00:27:00;;;;;;;9.27;3.35;;;12.40;99.90;;;;;;5051943;28;20071;-76
2024/02/16 00:29:26;;;;;;;5.63;3.25;;;12.40;99.90;;;;;;5049984;28;20421;-77
2024/02/16 00:31:51;;;;;;;6.18;3.40;;;12.30;99.90;;;;;;5051137;28;20036;-77
2024/02/16 00:34:17;;;;;;;11.32;3.63;;;12.30;99.90;;;;;;5050698;28;20027;-77
2024/02/16 00:36:44;;;;;;;5.40;3.40;;;12.30;99.90;;;;;;5051462;28;20157;-77
2024/02/16 00:39:09;;;;;;;8.52;2.95;;;12.20;99.90;;;;;;5051532;28;20112;-77
2024/02/16 00:41:35;;;;;;;6.93;3.38;;;12.30;99.90;;;;;;5050608;28;20133;-77
2024/02/16 00:44:00;;;;;;;7.47;3.05;;;12.30;99.90;;;;;;5051931;28;20045;-76
2024/02/16 00:46:26;;;;;;;8.25;3.40;;;12.30;99.90;;;;;;5050991;28;20025;-77
2024/02/16 00:48:53;;;;;;;6.00;3.28;;;12.30;99.90;;;;;;5052295;28;20033;-77
2024/02/16 00:51:20;;;;;;;6.75;3.08;;;12.30;99.90;;;;;;5050432;28;20733;-77
2024/02/16 00:53:46;;;;;;;7.65;2.85;;;12.30;99.90;;;;;;5052394;28;20025;-77
2024/02/16 00:56:12;;;;;;;8.05;3.45;;;12.30;99.90;;;;;;5050421;28;20031;-77
2024/02/16 00:58:41;;;;;;;5.47;3.20;;;12.30;99.90;;;;;;5052508;28;20025;-77
2024/02/16 01:01:10;;;;;;;6.50;3.15;;;12.30;99.90;;;;;;5050444;28;20044;-77
2024/02/16 01:03:37;;;;;;;7.55;3.28;;;12.30;99.90;;;;;;5051069;28;20021;-77
2024/02/16 01:06:03;;;;;;;6.95;3.40;;;12.30;99.90;;;;;;5051651;28;20029;-77
2024/02/16 01:08:29;;;;;;;5.75;2.90;;;12.20;99.90;;;;;;5052126;28;20028;-77
2024/02/16 01:10:55;;;;;;;5.07;2.90;;;12.20;99.90;;;;;;5050987;28;20465;-77
2024/02/16 01:13:20;;;;;;;7.45;2.83;;;12.20;99.90;;;;;;5051642;28;20025;-77
2024/02/16 01:15:46;;;;;;;6.53;2.78;;;12.30;99.90;;;;;;5052146;28;20074;-77
2024/02/16 01:18:12;;;;;;;6.28;3.17;;;12.20;99.90;;;;;;5050174;28;20029;-76
2024/02/16 01:20:37;;;;;;;5.18;2.63;;;12.20;99.90;;;;;;5050834;28;20425;-77
2024/02/16 01:23:04;;;;;;;7.05;3.50;;;12.20;99.90;;;;;;5051468;28;20183;-76
2024/02/16 01:25:31;;;;;;;5.40;2.95;;;12.20;99.90;;;;;;5050701;28;20493;-77
2024/02/16 01:27:56;;;;;;;6.82;3.13;;;12.20;99.90;;;;;;5051831;28;20052;-77
2024/02/16 01:30:22;;;;;;;7.22;2.97;;;12.20;99.90;;;;;;5051028;28;20465;-77
2024/02/16 01:32:47;;;;;;;7.68;2.75;;;12.20;99.90;;;;;;5050846;28;20029;-77
2024/02/16 01:35:16;;;;;;;4.97;3.00;;;12.20;99.90;;;;;;5050147;28;20025;-77
2024/02/16 01:37:42;;;;;;;7.25;3.13;;;12.20;99.90;;;;;;5052295;28;20025;-77
2024/02/16 01:40:13;;;;;;;9.52;2.55;;;12.20;99.90;;;;;;5052726;28;20019;-77
2024/02/16 01:42:42;;;;;;;5.97;3.30;;;12.10;99.90;;;;;;5055688;28;20477;-77
2024/02/16 01:45:09;;;;;;;6.95;2.78;;;12.10;99.90;;;;;;5054050;28;20025;-77
2024/02/16 01:47:36;;;;;;;8.00;3.30;;;12.00;99.90;;;;;;5055838;28;20029;-77
2024/02/16 01:50:03;;;;;;;7.53;3.10;;;12.00;99.90;;;;;;5055417;28;20028;-76
2024/02/16 01:52:30;;;;;;;6.20;2.97;;;12.00;99.90;;;;;;5055498;28;20087;-77
2024/02/16 01:54:57;;;;;;;9.30;3.40;;;11.90;99.90;;;;;;5054451;28;20343;-77
2024/02/16 01:57:23;;;;;;;8.75;2.92;;;11.90;99.90;;;;;;5055044;28;20033;-77
2024/02/16 01:59:49;;;;;;;7.15;2.80;;;11.90;99.90;;;;;;5053701;28;20025;-77
2024/02/16 02:02:15;;;;;;;7.45;3.67;;;11.80;99.90;;;;;;5053078;28;20390;-76
2024/02/16 02:04:41;;;;;;;5.72;3.22;;;11.80;99.90;;;;;;5055188;28;20029;-77
2024/02/16 02:07:17;;;;;;;6.82;3.17;;;11.80;99.90;;;;;;5054299;28;20025;-76
2024/02/16 02:09:42;;;;;;;8.98;3.10;;;11.90;99.90;;;;;;5053896;28;20037;-77
2024/02/16 02:12:09;;;;;;;7.90;3.08;;;11.90;99.90;;;;;;5053209;28;20043;-77
2024/02/16 02:14:37;;;;;;;7.03;2.78;;;11.90;99.90;;;;;;5053790;28;20029;-77
2024/02/16 02:17:03;;;;;;;6.68;2.78;;;11.90;99.90;;;;;;5055139;28;20039;-77
2024/02/16 02:19:29;;;;;;;6.22;3.00;;;11.90;99.90;;;;;;5053017;28;20025;-77
2024/02/16 02:21:55;;;;;;;5.65;3.00;;;12.00;99.90;;;;;;5053923;28;20029;-77
2024/02/16 02:24:21;;;;;;;7.57;3.10;;;11.80;99.90;;;;;;5052610;28;20116;-77
2024/02/16 02:26:46;;;;;;;8.15;2.95;;;11.80;99.90;;;;;;5054714;28;20478;-78
2024/02/16 02:29:12;;;;;;;5.60;2.78;;;11.80;99.90;;;;;;5052640;28;20025;-76
2024/02/16 02:31:37;;;;;;;5.93;2.90;;;11.70;99.90;;;;;;5053038;28;20501;-76
2024/02/16 02:34:05;;;;;;;7.07;2.75;;;11.70;99.90;;;;;;5053431;28;20029;-77
2024/02/16 02:36:32;;;;;;;7.28;2.72;;;11.70;99.90;;;;;;5054135;28;20031;-77
2024/02/16 02:38:58;;;;;;;4.50;2.72;;;11.60;99.90;;;;;;5053242;28;20060;-78
2024/02/16 02:41:23;;;;;;;5.70;2.67;;;11.60;99.90;;;;;;5052718;28;20061;-77
2024/02/16 02:43:49;;;;;;;6.05;2.95;;;11.60;99.90;;;;;;5052993;28;20048;-77
2024/02/16 02:46:16;;;;;;;4.03;2.80;;;11.50;99.90;;;;;;5053573;28;20025;-77
2024/02/16 02:48:45;;;;;;;5.18;3.13;;;11.50;99.90;;;;;;5052902;28;20025;-77
2024/02/16 02:51:11;;;;;;;7.18;2.67;;;11.60;99.90;;;;;;5052391;28;20114;-77
2024/02/16 02:53:37;;;;;;;5.78;2.92;;;11.60;99.90;;;;;;5053898;28;20474;-77
2024/02/16 02:56:03;;;;;;;8.93;2.88;;;11.50;99.90;;;;;;5053919;28;20523;-77
2024/02/16 02:58:29;;;;;;;6.57;2.47;;;11.50;99.90;;;;;;5051820;28;20056;-76
2024/02/16 03:00:55;;;;;;;5.88;2.92;;;11.50;99.90;;;;;;5052659;28;20075;-77
2024/02/16 03:03:21;;;;;;;5.68;3.10;;;11.50;99.90;;;;;;5051975;28;20049;-76
2024/02/16 03:05:47;;;;;;;5.28;3.00;;;11.50;99.90;;;;;;5052618;28;20033;-76
2024/02/16 03:08:12;;;;;;;4.22;2.70;;;11.50;99.90;;;;;;5051614;28;20356;-77
2024/02/16 03:10:39;;;;;;;6.35;2.70;;;11.40;99.90;;;;;;5052726;28;20048;-77
2024/02/16 03:13:06;;;;;;;3.95;2.50;;;11.40;99.90;;;;;;5052118;28;20040;-76
2024/02/16 03:15:33;;;;;;;6.50;3.13;;;11.40;99.90;;;;;;5051616;28;20029;-76
2024/02/16 03:17:59;;;;;;;3.55;2.42;;;11.40;99.90;;;;;;5053612;28;20373;-76
2024/02/16 03:20:25;;;;;;;5.80;2.50;;;11.40;99.90;;;;;;5051453;28;20034;-76
2024/02/16 03:22:50;;;;;;;6.75;2.97;;;11.40;99.90;;;;;;5052098;28;20099;-76
2024/02/16 03:25:16;;;;;;;5.10;2.28;;;11.40;99.90;;;;;;5052612;28;20097;-75
2024/02/16 03:27:43;;;;;;;4.80;2.67;;;11.40;99.90;;;;;;5051948;28;20021;-76
2024/02/16 03:30:08;;;;;;;7.68;2.88;;;11.50;99.90;;;;;;5052993;28;20459;-75
2024/02/16 03:32:34;;;;;;;5.07;2.67;;;11.50;99.90;;;;;;5051378;28;20132;-76
2024/02/16 03:35:00;;;;;;;6.30;3.17;;;11.50;99.90;;;;;;5053144;28;20056;-75
2024/02/16 03:37:26;;;;;;;5.80;2.45;;;11.40;99.90;;;;;;5052292;28;20032;-76
2024/02/16 03:39:53;;;;;;;4.90;2.80;;;11.30;99.90;;;;;;5053129;28;20021;-75
2024/02/16 03:42:19;;;;;;;5.38;2.70;;;11.40;99.90;;;;;;5050581;28;20045;-76
2024/02/16 03:44:45;;;;;;;4.78;2.90;;;11.30;99.90;;;;;;5051840;28;20036;-76
2024/02/16 03:47:10;;;;;;;5.65;2.70;;;11.30;99.90;;;;;;5052689;28;20424;-75
2024/02/16 03:49:36;;;;;;;7.72;2.85;;;11.30;99.90;;;;;;5052331;28;20526;-75
2024/02/16 03:52:02;;;;;;;7.00;2.47;;;11.30;99.90;;;;;;5052325;28;20090;-75
2024/02/16 03:54:27;;;;;;;5.50;2.72;;;11.30;99.90;;;;;;5050609;28;20033;-75
2024/02/16 03:56:56;;;;;;;4.05;2.35;;;11.30;99.90;;;;;;5051505;28;20465;-76
2024/02/16 03:59:23;;;;;;;5.05;2.78;;;11.30;99.90;;;;;;5050598;28;20021;-75
2024/02/16 04:01:49;;;;;;;3.60;2.60;;;11.30;99.90;;;;;;5052610;28;20024;-75
2024/02/16 04:04:15;;;;;;;5.13;2.45;;;11.30;99.90;;;;;;5050455;28;20025;-75
2024/02/16 04:06:41;;;;;;;5.70;2.67;;;11.30;99.90;;;;;;5052745;28;20029;-76
2024/02/16 04:09:06;;;;;;;6.03;2.72;;;11.30;99.90;;;;;;5051283;28;20047;-76
2024/02/16 04:11:32;;;;;;;5.65;2.55;;;11.30;99.90;;;;;;5050652;28;20037;-76
2024/02/16 04:13:58;;;;;;;3.55;2.30;;;11.20;99.90;;;;;;5051511;28;20029;-76
2024/02/16 04:16:24;;;;;;;5.07;2.75;;;11.10;99.90;;;;;;5051868;28;20366;-76
2024/02/16 04:18:51;;;;;;;5.40;2.30;;;11.00;99.90;;;;;;5052862;28;20420;-76
2024/02/16 04:21:16;;;;;;;6.60;2.60;;;11.10;99.90;;;;;;5050542;28;20057;-76
2024/02/16 04:23:42;;;;;;;5.60;2.40;;;11.10;99.90;;;;;;5051273;28;20539;-76
2024/02/16 04:26:08;;;;;;;6.35;2.50;;;11.00;99.90;;;;;;5052664;28;20041;-76
2024/02/16 04:28:37;;;;;;;4.18;2.17;;;11.00;99.90;;;;;;5050783;28;20025;-76
2024/02/16 04:31:02;;;;;;;3.95;2.35;;;10.90;99.90;;;;;;5051143;28;20037;-76
2024/02/16 04:33:28;;;;;;;4.90;2.45;;;10.90;99.90;;;;;;5050508;28;20025;-77
2024/02/16 04:35:53;;;;;;;6.05;3.33;;;10.90;99.90;;;;;;5052529;28;20021;-77
2024/02/16 04:38:19;;;;;;;6.18;2.78;;;10.70;99.90;;;;;;5050473;28;20466;-77
2024/02/16 04:40:45;;;;;;;5.63;2.90;;;10.70;99.90;;;;;;5052493;28;20053;-77
2024/02/16 04:43:11;;;;;;;4.90;2.63;;;10.70;99.90;;;;;;5052117;28;20052;-76
2024/02/16 04:45:37;;;;;;;5.82;2.33;;;10.70;99.90;;;;;;5050667;28;20037;-77
2024/02/16 04:48:07;;;;;;;4.53;2.72;;;10.60;99.90;;;;;;5051089;28;20087;-76
2024/02/16 04:50:33;;;;;;;7.57;2.65;;;10.70;99.90;;;;;;5050570;28;20168;-76
2024/02/16 04:52:59;;;;;;;6.45;2.38;;;10.60;99.90;;;;;;5052249;28;20033;-76
2024/02/16 04:55:25;;;;;;;7.13;2.55;;;10.60;99.90;;;;;;5051517;28;20481;-76
2024/02/16 04:57:51;;;;;;;7.53;2.95;;;10.70;99.90;;;;;;5052213;28;20029;-76
2024/02/16 05:00:17;;;;;;;6.85;2.85;;;10.70;99.90;;;;;;5051662;28;20021;-76
2024/02/16 05:02:42;;;;;;;5.22;2.75;;;10.70;99.90;;;;;;5051050;28;20029;-76
2024/02/16 05:05:08;;;;;;;5.75;2.38;;;10.70;99.90;;;;;;5050556;28;20021;-76
2024/02/16 05:07:36;;;;;;;5.35;2.55;;;10.70;99.90;;;;;;5050260;28;20030;-76
2024/02/16 05:10:02;;;;;;;5.55;2.28;;;10.70;99.90;;;;;;5052159;28;20390;-76
2024/02/16 05:12:27;;;;;;;5.25;3.00;;;10.70;99.90;;;;;;5051475;28;20040;-76
2024/02/16 05:14:53;;;;;;;5.18;2.50;;;10.70;99.90;;;;;;5052348;28;20025;-76
2024/02/16 05:17:20;;;;;;;5.93;2.40;;;10.60;99.90;;;;;;5054125;28;20033;-75
2024/02/16 05:19:46;;;;;;;8.70;2.85;;;10.70;99.90;;;;;;5054759;28;20021;-76
2024/02/16 05:22:11;;;;;;;5.35;2.42;;;10.70;99.90;;;;;;5055857;28;20029;-76
2024/02/16 05:24:37;;;;;;;4.10;2.80;;;10.60;99.90;;;;;;5053936;28;20032;-76
2024/02/16 05:27:03;;;;;;;5.90;2.53;;;10.60;99.90;;;;;;5054604;28;20033;-76
2024/02/16 05:29:28;;;;;;;5.30;2.80;;;10.60;99.90;;;;;;5054694;28;20035;-76
2024/02/16 05:31:54;;;;;;;7.80;2.90;;;10.50;99.90;;;;;;5054350;28;20029;-76
2024/02/16 05:34:20;;;;;;;9.57;2.63;;;10.60;99.90;;;;;;5054782;28;20083;-76
2024/02/16 05:36:45;;;;;;;5.95;2.65;;;10.60;99.90;;;;;;5054401;28;20029;-77
2024/02/16 05:39:24;;;;;;;6.50;2.40;;;10.60;99.90;;;;;;5054765;28;20025;-77
2024/02/16 05:41:50;;;;;;;4.95;2.55;;;10.60;99.90;;;;;;5055003;28;20052;-76
2024/02/16 05:44:16;;;;;;;5.47;2.60;;;10.50;99.90;;;;;;5054111;28;20430;-76
2024/02/16 05:46:42;;;;;;;4.13;2.42;;;10.50;99.90;;;;;;5053642;28;20021;-76
2024/02/16 05:49:08;;;;;;;5.53;2.70;;;10.50;99.90;;;;;;5055553;28;20033;-77
2024/02/16 05:51:40;;;;;;;4.50;2.42;;;10.40;99.90;;;;;;5053269;28;20470;-76
2024/02/16 05:54:07;;;;;;;9.27;3.10;;;10.50;99.90;;;;;;5055147;28;20025;-76
2024/02/16 05:56:33;;;;;;;6.13;3.05;;;10.50;99.90;;;;;;5053164;28;20122;-76
2024/02/16 05:59:00;;;;;;;4.45;2.45;;;10.40;99.90;;;;;;5054197;28;20197;-76
2024/02/16 06:01:27;;;;;;;6.07;2.78;;;10.40;99.90;;;;;;5053119;28;20056;-76
2024/02/16 06:03:53;;;;;;;6.43;2.63;;;10.50;99.90;;;;;;5053764;28;20119;-76
2024/02/16 06:06:19;;;;;;;6.07;2.55;;;10.40;99.90;;;;;;5054608;28;20488;-75
2024/02/16 06:08:44;;;;;;;5.45;2.78;;;10.50;99.90;;;;;;5054570;28;20036;-76
2024/02/16 06:11:10;;;;;;;5.60;2.63;;;10.50;99.90;;;;;;5053593;28;20212;-76
2024/02/16 06:13:35;;;;;;;6.22;3.15;;;10.50;99.90;;;;;;5053939;28;20112;-75
2024/02/16 06:16:01;;;;;;;4.95;2.75;;;10.50;99.90;;;;;;5054880;28;20068;-77
2024/02/16 06:18:29;;;;;;;5.68;2.85;;;10.50;99.90;;;;;;5053013;28;20075;-76
2024/02/16 06:20:55;;;;;;;6.95;2.85;;;10.50;99.90;;;;;;5054753;28;20025;-76
2024/02/16 06:23:21;;;;;;;5.75;2.53;;;10.40;99.90;;;;;;5053591;28;20114;-74
2024/02/16 06:25:46;;;;;;;5.45;2.60;;;10.40;99.90;;;;;;5054063;28;20525;-76
2024/02/16 06:28:12;;;;;;;5.47;2.50;;;10.40;99.90;;;;;;5054269;28;20021;-76
2024/02/16 06:30:37;;;;;;;6.93;2.40;;;10.50;99.90;;;;;;5052126;28;20489;-76
2024/02/16 06:33:03;;;;;;;5.95;2.30;;;10.40;99.90;;;;;;5053866;28;20040;-76
2024/02/16 06:35:30;;;;;;;4.38;2.10;;;10.40;99.90;;;;;;5052560;28;20025;-76
2024/02/16 06:37:55;;;;;;;3.33;2.17;;;10.40;99.90;;;;;;5053143;28;20021;-75
2024/02/16 06:40:21;;;;;;;5.32;2.28;;;10.40;99.90;;;;;;5052536;28;20021;-79
2024/02/16 06:42:46;;;;;;;5.00;2.80;;;10.40;99.90;;;;;;5054105;28;20052;-79
2024/02/16 06:45:12;;;;;;;7.03;2.55;;;10.40;99.90;;;;;;5054675;28;20029;-79
2024/02/16 06:47:38;;;;;;;6.30;2.47;;;10.50;99.90;;;;;;5054534;28;20025;-81
2024/02/16 06:50:03;;;;;;;7.00;2.35;;;10.50;99.90;;;;;;5053306;28;20025;-82
2024/02/16 06:52:29;;;;;;;4.15;2.03;;;10.50;99.90;;;;;;5053962;28;20044;-81
2024/02/16 06:54:55;;;;;;;4.88;2.38;;;10.50;99.90;;;;;;5053508;28;20037;-81
2024/02/16 06:57:20;;;;;;;5.85;2.53;;;10.50;99.90;;;;;;5053305;28;20051;-80
2024/02/16 06:59:46;;;;;;;4.53;2.60;;;10.60;99.90;;;;;;5053698;28;20533;-79
2024/02/16 07:02:13;;;;;;;7.65;2.92;;;10.70;99.90;;;;;;5053624;28;20053;-79
2024/02/16 07:04:42;;;;;;;4.78;2.30;;;10.70;99.90;;;;;;5052896;28;20060;-81
2024/02/16 07:07:08;;;;;;;4.88;2.67;;;10.80;99.90;;;;;;5053252;28;20037;-79
2024/02/16 07:09:33;;;;;;;5.80;2.10;;;10.80;99.90;;;;;;5054248;28;20032;-80
2024/02/16 07:11:59;;;;;;;3.50;2.25;;;10.90;99.90;;;;;;5054651;28;20068;-79
2024/02/16 07:14:25;;;;;;;4.15;2.72;;;11.00;99.90;;;;;;5054371;28;20044;-79
2024/02/16 07:16:51;;;;;;;6.57;2.75;;;11.00;99.90;;;;;;5053439;28;20025;-79
2024/02/16 07:19:17;;;;;;;5.97;2.50;;;11.00;99.90;;;;;;5053777;28;20031;-79
2024/02/16 07:21:44;;;;;;;6.20;2.60;;;11.00;99.90;;;;;;5052668;28;20029;-79
2024/02/16 07:24:09;;;;;;;4.25;2.50;;;11.10;99.90;;;;;;5054685;28;20039;-79
2024/02/16 07:26:36;;;;;;;4.82;2.83;;;11.10;99.90;;;;;;5052967;28;20458;-79
2024/02/16 07:29:02;;;;;;;4.40;2.33;;;11.10;99.90;;;;;;5054573;28;20059;-79
2024/02/16 07:31:34;;;;;;;8.05;2.97;;;11.10;99.90;;;;;;5069542;28;20041;-79
2024/02/16 07:33:59;;;;;;;7.00;2.83;;;11.20;99.90;;;;;;5054278;28;20127;-80
2024/02/16 07:36:25;;;;;;;4.88;2.67;;;11.20;99.90;;;;;;5052669;28;20048;-79
2024/02/16 07:38:51;;;;;;;7.72;2.70;;;11.20;99.90;;;;;;5053852;28;20020;-80
2024/02/16 07:41:16;;;;;;;5.97;3.00;;;11.20;99.90;;;;;;5052913;28;20025;-79
2024/02/16 07:43:42;;;;;;;6.95;2.97;;;11.30;99.90;;;;;;5051864;28;20281;-80
2024/02/16 07:46:08;;;;;;;8.60;2.95;;;11.30;99.90;;;;;;5052916;28;20056;-79
2024/02/16 07:48:35;;;;;;;7.63;2.97;;;11.30;99.90;;;;;;5053087;28;20451;-78
2024/02/16 07:51:02;;;;;;;6.60;2.75;;;11.30;99.90;;;;;;5052631;28;20021;-79
2024/02/16 07:53:28;;;;;;;5.10;2.92;;;11.30;99.90;;;;;;5053142;28;20060;-78
2024/02/16 07:55:54;;;;;;;14.15;3.20;;;11.40;99.90;;;;;;5053739;28;20025;-79
2024/02/16 07:58:19;;;;;;;7.25;3.25;;;11.50;99.90;;;;;;5052400;28;20036;-79
2024/02/16 08:00:45;;;;;;;8.57;3.03;;;11.50;99.90;;;;;;5053188;28;20029;-78
2024/02/16 08:03:11;;;;;;;7.72;3.42;;;11.50;99.90;;;;;;5053458;28;20052;-78
2024/02/16 08:05:37;;;;;;;7.40;3.38;;;11.50;99.90;;;;;;5051683;28;20021;-78
2024/02/16 08:08:03;;;;;;;7.28;3.10;;;11.50;99.90;;;;;;5053398;28;20083;-78
2024/02/16 08:10:28;;;;;;;5.93;3.15;;;11.60;99.90;;;;;;5052882;28;20029;-78
2024/02/16 08:12:54;;;;;;;7.05;3.03;;;11.60;99.90;;;;;;5053411;28;20062;-78
2024/02/16 08:15:23;;;;;;;6.13;3.08;;;11.70;99.90;;;;;;5052014;28;20116;-79
2024/02/16 08:17:50;;;;;;;7.43;3.10;;;11.70;99.90;;;;;;5051602;28;20458;-79
2024/02/16 08:20:16;;;;;;;8.77;2.92;;;11.70;99.90;;;;;;5052311;28;20049;-79
2024/02/16 08:22:42;;;;;;;6.65;2.92;;;11.70;99.90;;;;;;5051399;28;20064;-78
2024/02/16 08:25:08;;;;;;;3.83;2.88;;;11.80;99.90;;;;;;5051931;28;20492;-79
2024/02/16 08:27:33;;;;;;;8.80;2.83;;;11.80;99.90;;;;;;5051616;28;20029;-80
2024/02/16 08:29:59;;;;;;;6.40;3.17;;;11.90;99.90;;;;;;5053019;28;20021;-79
2024/02/16 08:32:25;;;;;;;7.20;2.90;;;11.90;99.90;;;;;;5053379;28;20500;-80
2024/02/16 08:34:50;;;;;;;7.75;3.70;;;11.90;99.90;;;;;;5052102;28;20040;-80
2024/02/16 08:37:16;;;;;;;5.47;3.33;;;12.00;99.90;;;;;;5052846;28;20025;-80
2024/02/16 08:39:42;;;;;;;6.47;3.30;;;12.00;99.90;;;;;;5051804;28;20021;-79
2024/02/16 08:42:08;;;;;;;6.82;2.90;;;12.10;99.90;;;;;;5052662;28;20049;-80
2024/02/16 08:44:34;;;;;;;8.23;3.15;;;12.10;99.90;;;;;;5052840;28;20025;-79
2024/02/16 08:47:00;;;;;;;9.45;3.22;;;12.10;99.90;;;;;;5053416;28;20029;-80
2024/02/16 08:49:26;;;;;;;8.25;3.35;;;12.10;99.90;;;;;;5053764;28;20040;-79
2024/02/16 08:51:52;;;;;;;6.97;2.78;;;12.10;99.90;;;;;;5056118;28;20033;-80
2024/02/16 08:54:18;;;;;;;6.13;3.33;;;12.20;99.90;;;;;;5057143;28;20485;-79
2024/02/16 08:56:45;;;;;;;10.75;3.45;;;12.20;99.90;;;;;;5055508;28;20095;-79
2024/02/16 08:59:10;;;;;;;11.02;3.20;;;12.20;99.90;;;;;;5057372;28;20025;-79
2024/02/16 09:01:37;;;;;;;7.47;3.17;;;12.20;99.90;;;;;;5056436;28;20025;-79
2024/02/16 09:04:03;;;;;;;6.15;3.55;;;12.20;99.90;;;;;;5056078;28;20040;-78
2024/02/16 09:06:29;;;;;;;9.45;3.60;;;12.20;99.90;;;;;;5055120;28;20456;-78
2024/02/16 09:08:56;;;;;;;7.72;3.22;;;12.20;99.90;;;;;;5056893;28;20032;-79
2024/02/16 09:11:22;;;;;;;8.75;3.70;;;12.20;99.90;;;;;;5055494;28;20033;-79
2024/02/16 09:13:48;;;;;;;10.20;3.88;;;12.20;99.90;;;;;;5055148;28;20702;-79
2024/02/16 09:16:13;;;;;;;7.10;3.20;;;12.20;99.90;;;;;;5055722;28;20060;-78
2024/02/16 09:18:39;;;;;;;7.50;3.13;;;12.30;99.90;;;;;;5055242;28;20033;-78
2024/02/16 09:21:05;;;;;;;6.43;3.22;;;12.30;99.90;;;;;;5055668;28;20055;-79
2024/02/16 09:23:32;;;;;;;6.80;3.25;;;12.30;99.90;;;;;;5056127;28;20033;-78
2024/02/16 09:25:59;;;;;;;7.05;3.25;;;12.30;99.90;;;;;;5056804;28;20028;-79
2024/02/16 09:28:24;;;;;;;6.18;3.13;;;12.30;99.90;;;;;;5055553;28;20115;-79
2024/02/16 09:30:50;;;;;;;7.38;3.35;;;12.30;99.90;;;;;;5055017;28;20436;-79
2024/02/16 09:33:16;;;;;;;6.95;3.38;;;12.30;99.90;;;;;;5055413;28;20124;-79
2024/02/16 09:35:42;;;;;;;5.88;3.25;;;12.30;99.90;;;;;;5054854;28;20060;-79
2024/02/16 09:38:10;;;;;;;6.88;3.05;;;12.40;99.90;;;;;;5055453;28;20022;-80
2024/02/16 09:40:36;;;;;;;6.43;3.25;;;12.40;99.90;;;;;;5054752;28;20385;-79
2024/02/16 09:43:02;;;;;;;10.38;3.80;;;12.50;99.90;;;;;;5054332;28;20055;-79
2024/02/16 09:45:30;;;;;;;6.68;3.35;;;12.50;99.90;;;;;;5054166;28;20029;-79
2024/02/16 09:47:57;;;;;;;6.30;3.17;;;12.50;99.90;;;;;;5054077;28;20033;-79
2024/02/16 09:50:23;;;;;;;5.60;3.05;;;12.60;99.90;;;;;;5053911;28;20525;-79
2024/02/16 09:52:50;;;;;;;5.60;3.38;;;12.60;99.90;;;;;;5053382;28;20037;-79
2024/02/16 09:55:17;;;;;;;7.50;3.05;;;12.60;99.90;;;;;;5054792;28;20021;-79
2024/02/16 09:57:43;;;;;;;7.82;3.17;;;12.70;99.90;;;;;;5053016;28;20030;-79
2024/02/16 10:00:10;;;;;;;9.38;2.97;;;12.70;99.90;;;;;;5053401;28;20124;-79
2024/02/16 10:02:48;;;;;;;6.15;2.92;;;12.80;99.90;;;;;;5054169;28;20033;-79
2024/02/16 10:05:20;;;;;;;4.95;2.97;;;12.90;99.90;;;;;;5053513;28;20022;-79
2024/02/16 10:07:46;;;;;;;7.93;2.92;;;13.00;99.90;;;;;;5053822;28;20021;-79
2024/02/16 10:10:25;;;;;;;5.53;2.58;;;13.20;99.90;;;;;;5054770;28;20577;-79
2024/02/16 10:13:08;;;;;;;5.90;2.60;;;13.30;99.90;;;;;;5052327;28;20404;-78
2024/02/16 10:15:34;;;;;;;4.88;2.60;;;13.30;99.90;;;;;;5053849;28;20029;-78
2024/02/16 10:18:01;;;;;;;4.50;2.85;;;13.40;99.90;;;;;;5054386;28;20077;-78
2024/02/16 10:20:27;;;;;;;6.57;2.63;;;13.50;99.90;;;;;;5054284;28;20466;-78
2024/02/16 10:23:09;;;;;;;6.28;2.53;;;13.50;99.90;;;;;;5052381;28;20052;-78
2024/02/16 10:25:36;;;;;;;5.93;2.67;;;13.60;99.90;;;;;;5053913;28;20079;-78
2024/02/16 10:28:13;;;;;;;6.10;2.78;;;13.60;99.90;;;;;;5054614;28;20051;-80
2024/02/16 10:30:42;;;;;;;4.50;2.13;;;13.70;99.90;;;;;;5053538;28;20025;-80
2024/02/16 10:33:08;;;;;;;7.28;2.22;;;13.80;99.90;;;;;;5053395;28;20116;-80
2024/02/16 10:35:35;;;;;;;4.93;2.10;;;13.90;99.90;;;;;;5052218;28;20021;-78
2024/02/16 10:38:06;;;;;;;7.45;2.28;;;14.10;99.90;;;;;;5053063;28;20163;-79
2024/02/16 10:40:39;;;;;;;3.63;1.77;;;14.20;99.90;;;;;;5054060;28;20523;-79
2024/02/16 10:43:06;;;;;;;4.38;2.30;;;14.40;99.90;;;;;;5017177;28;1128230;-79
2024/02/16 10:45:39;;;;;;;3.55;2.10;;;14.50;99.90;;;;;;5054096;28;20041;-80
2024/02/16 10:48:07;;;;;;;8.75;2.28;;;14.60;99.90;;;;;;5055485;28;20060;-79
2024/02/16 10:50:35;;;;;;;3.90;2.08;;;14.80;99.90;;;;;;5055502;28;20466;-80
2024/02/16 10:53:18;;;;;;;9.13;2.22;;;14.90;99.90;;;;;;5054597;28;20033;-79
2024/02/16 10:55:44;;;;;;;6.78;1.92;;;15.00;99.90;;;;;;5053745;28;20024;-79
2024/02/16 10:58:12;;;;;;;4.70;2.25;;;15.10;99.90;;;;;;5054898;28;20021;-79
2024/02/16 11:00:48;;;;;;;5.60;2.00;;;15.10;99.90;;;;;;5054226;28;20025;-79
2024/02/16 11:03:17;;;;;;;4.25;2.20;;;15.20;99.90;;;;;;5054810;28;20033;-80
2024/02/16 11:05:45;;;;;;;3.83;1.98;;;15.30;99.90;;;;;;5052950;28;20036;-79
2024/02/16 11:08:15;;;;;;;7.65;2.63;;;15.40;99.90;;;;;;5054699;28;20121;-80
2024/02/16 11:10:53;;;;;;;6.43;1.90;;;15.50;99.90;;;;;;5052866;28;20028;-79
2024/02/16 11:13:25;;;;;;;6.55;2.30;;;15.60;99.90;;;;;;5052644;28;20036;-80
2024/02/16 11:16:00;;;;;;;5.90;1.65;;;15.70;99.90;;;;;;5052879;28;20498;-80
2024/02/16 11:18:30;;;;;;;5.93;1.80;;;15.70;99.90;;;;;;5054682;28;20029;-80
2024/02/16 11:20:59;;;;;;;4.53;1.58;;;15.90;99.90;;;;;;5052637;28;20600;-80
2024/02/16 11:23:29;;;;;;;3.85;1.75;;;15.90;99.90;;;;;;5054279;28;20033;-79
2024/02/16 11:26:00;;;;;;;5.13;1.55;;;16.00;99.90;;;;;;5052763;28;20028;-80
2024/02/16 11:28:26;;;;;;;2.85;1.73;;;16.10;99.90;;;;;;5053195;28;20021;-80
2024/02/16 11:30:52;;;;;;;6.45;1.75;;;16.10;99.90;;;;;;5052670;28;20475;-79
2024/02/16 11:33:18;;;;;;;6.63;1.85;;;16.10;99.90;;;;;;5053275;28;20040;-80
2024/02/16 11:35:59;;;;;;;2.65;1.48;;;16.20;99.90;;;;;;5052358;28;20072;-79
2024/02/16 11:38:25;;;;;;;5.82;1.65;;;16.20;99.90;;;;;;5052872;28;20119;-80
2024/02/16 11:41:05;;;;;;;4.50;1.85;;;16.30;99.90;;;;;;5052240;28;20029;-80
2024/02/16 11:43:34;;;;;;;5.75;2.28;;;16.40;99.90;;;;;;5052669;28;20098;-80
2024/02/16 11:46:14;;;;;;;3.13;1.42;;;16.50;99.90;;;;;;5068898;28;20536;-80
2024/02/16 11:48:40;;;;;;;4.22;1.40;;;16.50;99.90;;;;;;5052225;28;20024;-79
2024/02/16 11:51:06;;;;;;;3.00;1.20;;;16.60;99.90;;;;;;5053926;28;20152;-80
2024/02/16 11:53:32;;;;;;;3.63;1.35;;;16.70;99.90;;;;;;5052539;28;20028;-80
2024/02/16 11:55:58;;;;;;;8.68;1.55;;;16.80;99.90;;;;;;5052167;28;20393;-80
2024/02/16 11:58:24;;;;;;;2.75;1.35;;;16.80;99.90;;;;;;5052775;28;20033;-80
2024/02/16 12:00:51;;;;;;;1.95;1.20;;;16.90;99.90;;;;;;5052014;28;20024;-80
2024/02/16 12:03:27;;;;;;;5.63;1.63;;;17.00;99.90;;;;;;5053720;28;20029;-79
2024/02/16 12:06:01;;;;;;;6.75;1.58;;;17.00;99.90;;;;;;5050676;28;20029;-78
2024/02/16 12:08:34;;;;;;;6.72;1.80;;;17.10;99.90;;;;;;5052264;28;20370;-79
2024/02/16 12:11:00;;;;;;;4.18;1.20;;;17.20;99.90;;;;;;5067190;28;20114;-79
2024/02/16 12:13:26;;;;;;;4.25;1.50;;;17.30;99.90;;;;;;5050871;28;20091;-79
2024/02/16 12:15:52;;;;;;;5.68;1.52;;;17.30;99.90;;;;;;5050208;28;20047;-78
2024/02/16 12:18:30;;;;;;;3.90;1.27;;;17.40;99.90;;;;;;5049866;28;20029;-78
2024/02/16 12:21:00;;;;;;;8.32;1.75;;;17.30;99.90;;;;;;5050738;28;20115;-77
2024/02/16 12:23:25;;;;;;;3.58;1.23;;;17.30;99.90;;;;;;5067713;28;20442;-78
2024/02/16 12:25:51;;;;;;;4.60;1.25;;;17.30;99.90;;;;;;5051331;28;20028;-78
2024/02/16 12:28:17;;;;;;;3.17;1.10;;;17.20;99.90;;;;;;5051975;28;20033;-76
2024/02/16 12:30:42;;;;;;;4.40;1.35;;;17.20;99.90;;;;;;5051148;28;20029;-78
2024/02/16 12:33:08;;;;;;;2.63;0.98;;;17.20;99.90;;;;;;5053135;28;20029;-78
2024/02/16 12:35:34;;;;;;;3.22;1.25;;;17.20;99.90;;;;;;5052249;28;20128;-78
2024/02/16 12:38:00;;;;;;;7.03;1.20;;;17.20;99.90;;;;;;5052152;28;20048;-78
2024/02/16 12:40:26;;;;;;;4.47;1.55;;;17.20;99.90;;;;;;5051743;28;20064;-79
2024/02/16 12:42:52;;;;;;;4.10;1.20;;;17.20;99.90;;;;;;5050223;28;20149;-78